sensor_id;sensor_type;location;lat;lon;timestamp;pressure;altitude;pressure_sealevel;temperature
20736;BMP180;10528;52.124;5.196;2023-01-08T00:00:13;100151.00;;;15.80
20736;BMP180;10528;52.124;5.196;2023-01-08T00:02:40;100154.00;;;15.80
20736;BMP180;10528;52.124;5.196;2023-01-08T00:05:08;100149.00;;;15.80
20736;BMP180;10528;52.124;5.196;2023-01-08T00:07:37;100142.00;;;15.70
20736;BMP180;10528;52.124;5.196;2023-01-08T00:10:04;100151.00;;;15.70
20736;BMP180;10528;52.124;5.196;2023-01-08T00:12:31;100151.00;;;15.70
20736;BMP180;10528;52.124;5.196;2023-01-08T00:14:59;100147.00;;;15.70
20736;BMP180;10528;52.124;5.196;2023-01-08T00:17:25;100146.00;;;15.70
20736;BMP180;10528;52.124;5.196;2023-01-08T00:19:52;100149.00;;;15.60
20736;BMP180;10528;52.124;5.196;2023-01-08T00:22:19;100149.00;;;15.60
20736;BMP180;10528;52.124;5.196;2023-01-08T00:24:46;100152.00;;;15.60
20736;BMP180;10528;52.124;5.196;2023-01-08T00:27:13;100144.00;;;15.60
20736;BMP180;10528;52.124;5.196;2023-01-08T00:29:40;100133.00;;;15.60
20736;BMP180;10528;52.124;5.196;2023-01-08T00:32:07;100122.00;;;15.60
20736;BMP180;10528;52.124;5.196;2023-01-08T00:34:33;100120.00;;;15.60
20736;BMP180;10528;52.124;5.196;2023-01-08T00:37:00;100108.00;;;15.60
20736;BMP180;10528;52.124;5.196;2023-01-08T00:39:27;100115.00;;;15.50
20736;BMP180;10528;52.124;5.196;2023-01-08T00:41:54;100103.00;;;15.50
20736;BMP180;10528;52.124;5.196;2023-01-08T00:44:21;100096.00;;;15.50
20736;BMP180;10528;52.124;5.196;2023-01-08T00:46:48;100098.00;;;15.50
20736;BMP180;10528;52.124;5.196;2023-01-08T00:49:14;100091.00;;;15.50
20736;BMP180;10528;52.124;5.196;2023-01-08T00:51:41;100096.00;;;15.50
20736;BMP180;10528;52.124;5.196;2023-01-08T00:54:10;100105.00;;;15.50
20736;BMP180;10528;52.124;5.196;2023-01-08T00:56:37;100098.00;;;15.50
20736;BMP180;10528;52.124;5.196;2023-01-08T00:59:04;100096.00;;;15.50
20736;BMP180;10528;52.124;5.196;2023-01-08T01:01:30;100093.00;;;15.50
20736;BMP180;10528;52.124;5.196;2023-01-08T01:03:58;100097.00;;;15.50
20736;BMP180;10528;52.124;5.196;2023-01-08T01:06:24;100092.00;;;15.50
20736;BMP180;10528;52.124;5.196;2023-01-08T01:08:51;100079.00;;;15.50
20736;BMP180;10528;52.124;5.196;2023-01-08T01:11:27;100077.00;;;15.50
20736;BMP180;10528;52.124;5.196;2023-01-08T01:13:55;100078.00;;;15.50
20736;BMP180;10528;52.124;5.196;2023-01-08T01:16:23;100084.00;;;15.50
20736;BMP180;10528;52.124;5.196;2023-01-08T01:18:51;100075.00;;;15.50
20736;BMP180;10528;52.124;5.196;2023-01-08T01:21:37;100075.00;;;15.50
20736;BMP180;10528;52.124;5.196;2023-01-08T01:24:05;100073.00;;;15.50
20736;BMP180;10528;52.124;5.196;2023-01-08T01:26:33;100065.00;;;15.50
20736;BMP180;10528;52.124;5.196;2023-01-08T01:29:00;100074.00;;;15.50
20736;BMP180;10528;52.124;5.196;2023-01-08T01:31:30;100062.00;;;15.50
20736;BMP180;10528;52.124;5.196;2023-01-08T01:33:58;100064.00;;;15.50
20736;BMP180;10528;52.124;5.196;2023-01-08T01:36:26;100075.00;;;15.50
20736;BMP180;10528;52.124;5.196;2023-01-08T01:38:55;100079.00;;;15.50
20736;BMP180;10528;52.124;5.196;2023-01-08T01:41:36;100083.00;;;15.50
20736;BMP180;10528;52.124;5.196;2023-01-08T01:44:34;100082.00;;;15.50
20736;BMP180;10528;52.124;5.196;2023-01-08T01:47:30;100086.00;;;15.50
20736;BMP180;10528;52.124;5.196;2023-01-08T01:50:09;100084.00;;;15.50
20736;BMP180;10528;52.124;5.196;2023-01-08T01:53:11;100088.00;;;15.50
20736;BMP180;10528;52.124;5.196;2023-01-08T01:55:40;100081.00;;;15.50
20736;BMP180;10528;52.124;5.196;2023-01-08T01:58:15;100098.00;;;15.50
20736;BMP180;10528;52.124;5.196;2023-01-08T02:00:43;100090.00;;;15.50
20736;BMP180;10528;52.124;5.196;2023-01-08T02:03:13;100088.00;;;15.50
20736;BMP180;10528;52.124;5.196;2023-01-08T02:05:55;100090.00;;;15.50
20736;BMP180;10528;52.124;5.196;2023-01-08T02:09:13;100082.00;;;15.40
20736;BMP180;10528;52.124;5.196;2023-01-08T02:12:16;100085.00;;;15.40
20736;BMP180;10528;52.124;5.196;2023-01-08T02:15:23;100093.00;;;15.40
20736;BMP180;10528;52.124;5.196;2023-01-08T02:18:14;100074.00;;;15.40
20736;BMP180;10528;52.124;5.196;2023-01-08T02:21:12;100069.00;;;15.40
20736;BMP180;10528;52.124;5.196;2023-01-08T02:23:54;100063.00;;;15.40
20736;BMP180;10528;52.124;5.196;2023-01-08T02:26:34;100058.00;;;15.40
20736;BMP180;10528;52.124;5.196;2023-01-08T02:29:12;100064.00;;;15.40
20736;BMP180;10528;52.124;5.196;2023-01-08T02:31:42;100059.00;;;15.40
20736;BMP180;10528;52.124;5.196;2023-01-08T02:34:10;100054.00;;;15.40
20736;BMP180;10528;52.124;5.196;2023-01-08T02:36:51;100050.00;;;15.40
20736;BMP180;10528;52.124;5.196;2023-01-08T02:39:45;100055.00;;;15.30
20736;BMP180;10528;52.124;5.196;2023-01-08T02:44:58;100057.00;;;15.40
20736;BMP180;10528;52.124;5.196;2023-01-08T02:47:35;100054.00;;;15.40
20736;BMP180;10528;52.124;5.196;2023-01-08T02:50:24;100061.00;;;15.40
20736;BMP180;10528;52.124;5.196;2023-01-08T02:53:12;100062.00;;;15.40
20736;BMP180;10528;52.124;5.196;2023-01-08T02:55:45;100056.00;;;15.40
20736;BMP180;10528;52.124;5.196;2023-01-08T02:58:14;100061.00;;;15.40
20736;BMP180;10528;52.124;5.196;2023-01-08T03:00:43;100063.00;;;15.40
20736;BMP180;10528;52.124;5.196;2023-01-08T03:03:19;100064.00;;;15.40
20736;BMP180;10528;52.124;5.196;2023-01-08T03:05:52;100054.00;;;15.40
20736;BMP180;10528;52.124;5.196;2023-01-08T03:08:22;100059.00;;;15.40
20736;BMP180;10528;52.124;5.196;2023-01-08T03:11:03;100065.00;;;15.40
20736;BMP180;10528;52.124;5.196;2023-01-08T03:13:41;100059.00;;;15.40
20736;BMP180;10528;52.124;5.196;2023-01-08T03:16:17;100044.00;;;15.40
20736;BMP180;10528;52.124;5.196;2023-01-08T03:19:03;100052.00;;;15.40
20736;BMP180;10528;52.124;5.196;2023-01-08T03:21:36;100045.00;;;15.40
20736;BMP180;10528;52.124;5.196;2023-01-08T03:24:05;100039.00;;;15.40
20736;BMP180;10528;52.124;5.196;2023-01-08T03:26:33;100044.00;;;15.40
20736;BMP180;10528;52.124;5.196;2023-01-08T03:29:03;100041.00;;;15.40
20736;BMP180;10528;52.124;5.196;2023-01-08T03:31:33;100044.00;;;15.40
20736;BMP180;10528;52.124;5.196;2023-01-08T03:34:03;100031.00;;;15.40
20736;BMP180;10528;52.124;5.196;2023-01-08T03:36:33;100041.00;;;15.40
20736;BMP180;10528;52.124;5.196;2023-01-08T03:39:16;100044.00;;;15.40
20736;BMP180;10528;52.124;5.196;2023-01-08T03:41:45;100030.00;;;15.40
20736;BMP180;10528;52.124;5.196;2023-01-08T03:44:14;100050.00;;;15.40
20736;BMP180;10528;52.124;5.196;2023-01-08T03:46:48;100046.00;;;15.40
20736;BMP180;10528;52.124;5.196;2023-01-08T03:49:17;100041.00;;;15.40
20736;BMP180;10528;52.124;5.196;2023-01-08T03:51:46;100040.00;;;15.40
20736;BMP180;10528;52.124;5.196;2023-01-08T03:54:23;100024.00;;;15.50
20736;BMP180;10528;52.124;5.196;2023-01-08T03:56:50;100023.00;;;15.50
20736;BMP180;10528;52.124;5.196;2023-01-08T03:59:17;100030.00;;;15.50
20736;BMP180;10528;52.124;5.196;2023-01-08T04:01:44;100037.00;;;15.50
20736;BMP180;10528;52.124;5.196;2023-01-08T04:04:11;100037.00;;;15.50
20736;BMP180;10528;52.124;5.196;2023-01-08T04:06:39;100045.00;;;15.50
20736;BMP180;10528;52.124;5.196;2023-01-08T04:09:05;100052.00;;;15.50
20736;BMP180;10528;52.124;5.196;2023-01-08T04:11:32;100055.00;;;15.50
20736;BMP180;10528;52.124;5.196;2023-01-08T04:13:59;100044.00;;;15.50
20736;BMP180;10528;52.124;5.196;2023-01-08T04:16:26;100033.00;;;15.50
20736;BMP180;10528;52.124;5.196;2023-01-08T04:18:53;100024.00;;;15.50
20736;BMP180;10528;52.124;5.196;2023-01-08T04:21:20;100024.00;;;15.50
20736;BMP180;10528;52.124;5.196;2023-01-08T04:23:47;100024.00;;;15.50
20736;BMP180;10528;52.124;5.196;2023-01-08T04:26:14;100034.00;;;15.50
20736;BMP180;10528;52.124;5.196;2023-01-08T04:28:40;100022.00;;;15.50
20736;BMP180;10528;52.124;5.196;2023-01-08T04:31:08;100024.00;;;15.50
20736;BMP180;10528;52.124;5.196;2023-01-08T04:33:36;100033.00;;;15.50
20736;BMP180;10528;52.124;5.196;2023-01-08T04:36:04;100033.00;;;15.50
20736;BMP180;10528;52.124;5.196;2023-01-08T04:38:31;100039.00;;;15.50
20736;BMP180;10528;52.124;5.196;2023-01-08T04:40:59;100021.00;;;15.50
20736;BMP180;10528;52.124;5.196;2023-01-08T04:43:27;99998.00;;;15.50
20736;BMP180;10528;52.124;5.196;2023-01-08T04:46:03;99990.00;;;15.50
20736;BMP180;10528;52.124;5.196;2023-01-08T04:48:30;100004.00;;;15.50
20736;BMP180;10528;52.124;5.196;2023-01-08T04:50:58;100008.00;;;15.50
20736;BMP180;10528;52.124;5.196;2023-01-08T04:53:27;100003.00;;;15.50
20736;BMP180;10528;52.124;5.196;2023-01-08T04:55:54;99997.00;;;15.40
20736;BMP180;10528;52.124;5.196;2023-01-08T04:58:21;100005.00;;;15.40
20736;BMP180;10528;52.124;5.196;2023-01-08T05:00:48;100002.00;;;15.40
20736;BMP180;10528;52.124;5.196;2023-01-08T05:03:15;100001.00;;;15.30
20736;BMP180;10528;52.124;5.196;2023-01-08T05:05:42;100006.00;;;15.30
20736;BMP180;10528;52.124;5.196;2023-01-08T05:08:09;100007.00;;;15.30
20736;BMP180;10528;52.124;5.196;2023-01-08T05:10:36;100006.00;;;15.30
20736;BMP180;10528;52.124;5.196;2023-01-08T05:13:02;100003.00;;;15.20
20736;BMP180;10528;52.124;5.196;2023-01-08T05:15:29;99997.00;;;15.20
20736;BMP180;10528;52.124;5.196;2023-01-08T05:18:03;99992.00;;;15.10
20736;BMP180;10528;52.124;5.196;2023-01-08T05:20:32;99988.00;;;15.10
20736;BMP180;10528;52.124;5.196;2023-01-08T05:22:59;100000.00;;;15.10
20736;BMP180;10528;52.124;5.196;2023-01-08T05:25:26;99988.00;;;15.00
20736;BMP180;10528;52.124;5.196;2023-01-08T05:27:53;99993.00;;;15.00
20736;BMP180;10528;52.124;5.196;2023-01-08T05:30:20;100004.00;;;15.00
20736;BMP180;10528;52.124;5.196;2023-01-08T05:32:46;99994.00;;;14.90
20736;BMP180;10528;52.124;5.196;2023-01-08T05:35:13;100003.00;;;14.90
20736;BMP180;10528;52.124;5.196;2023-01-08T05:37:41;100002.00;;;14.90
20736;BMP180;10528;52.124;5.196;2023-01-08T05:40:08;99996.00;;;14.80
20736;BMP180;10528;52.124;5.196;2023-01-08T05:42:36;99991.00;;;14.80
20736;BMP180;10528;52.124;5.196;2023-01-08T05:45:05;99994.00;;;14.80
20736;BMP180;10528;52.124;5.196;2023-01-08T05:47:33;99997.00;;;14.70
20736;BMP180;10528;52.124;5.196;2023-01-08T05:50:00;100002.00;;;14.70
20736;BMP180;10528;52.124;5.196;2023-01-08T05:52:28;100001.00;;;14.70
20736;BMP180;10528;52.124;5.196;2023-01-08T05:54:55;99996.00;;;14.60
20736;BMP180;10528;52.124;5.196;2023-01-08T05:57:22;99990.00;;;14.60
20736;BMP180;10528;52.124;5.196;2023-01-08T05:59:48;100001.00;;;14.60
20736;BMP180;10528;52.124;5.196;2023-01-08T06:02:15;99998.00;;;14.60
20736;BMP180;10528;52.124;5.196;2023-01-08T06:04:43;99999.00;;;14.50
20736;BMP180;10528;52.124;5.196;2023-01-08T06:07:10;100001.00;;;14.50
20736;BMP180;10528;52.124;5.196;2023-01-08T06:09:36;99996.00;;;14.50
20736;BMP180;10528;52.124;5.196;2023-01-08T06:12:03;99999.00;;;14.40
20736;BMP180;10528;52.124;5.196;2023-01-08T06:14:30;100006.00;;;14.40
20736;BMP180;10528;52.124;5.196;2023-01-08T06:16:57;100006.00;;;14.40
20736;BMP180;10528;52.124;5.196;2023-01-08T06:19:24;100004.00;;;14.40
20736;BMP180;10528;52.124;5.196;2023-01-08T06:21:51;99999.00;;;14.40
20736;BMP180;10528;52.124;5.196;2023-01-08T06:24:18;99990.00;;;14.30
20736;BMP180;10528;52.124;5.196;2023-01-08T06:26:45;99994.00;;;14.30
20736;BMP180;10528;52.124;5.196;2023-01-08T06:29:12;99996.00;;;14.30
20736;BMP180;10528;52.124;5.196;2023-01-08T06:31:39;100005.00;;;14.30
20736;BMP180;10528;52.124;5.196;2023-01-08T06:34:06;99995.00;;;14.20
20736;BMP180;10528;52.124;5.196;2023-01-08T06:36:33;99997.00;;;14.20
20736;BMP180;10528;52.124;5.196;2023-01-08T06:39:00;99995.00;;;14.20
20736;BMP180;10528;52.124;5.196;2023-01-08T06:41:27;100000.00;;;14.20
20736;BMP180;10528;52.124;5.196;2023-01-08T06:43:53;99994.00;;;14.10
20736;BMP180;10528;52.124;5.196;2023-01-08T06:46:20;100005.00;;;14.10
20736;BMP180;10528;52.124;5.196;2023-01-08T06:48:47;100006.00;;;14.10
20736;BMP180;10528;52.124;5.196;2023-01-08T06:51:14;100001.00;;;14.10
20736;BMP180;10528;52.124;5.196;2023-01-08T06:53:41;100011.00;;;14.10
20736;BMP180;10528;52.124;5.196;2023-01-08T06:56:08;100014.00;;;14.00
20736;BMP180;10528;52.124;5.196;2023-01-08T06:58:37;100013.00;;;14.00
20736;BMP180;10528;52.124;5.196;2023-01-08T07:01:05;100013.00;;;14.00
20736;BMP180;10528;52.124;5.196;2023-01-08T07:03:32;100009.00;;;14.00
20736;BMP180;10528;52.124;5.196;2023-01-08T07:06:01;99992.00;;;14.00
20736;BMP180;10528;52.124;5.196;2023-01-08T07:08:28;99999.00;;;13.90
20736;BMP180;10528;52.124;5.196;2023-01-08T07:10:55;99999.00;;;13.90
20736;BMP180;10528;52.124;5.196;2023-01-08T07:13:22;100007.00;;;13.90
20736;BMP180;10528;52.124;5.196;2023-01-08T07:15:50;100015.00;;;13.90
20736;BMP180;10528;52.124;5.196;2023-01-08T07:18:17;100001.00;;;13.90
20736;BMP180;10528;52.124;5.196;2023-01-08T07:20:44;100007.00;;;13.90
20736;BMP180;10528;52.124;5.196;2023-01-08T07:23:11;100003.00;;;13.90
20736;BMP180;10528;52.124;5.196;2023-01-08T07:25:38;100008.00;;;13.80
20736;BMP180;10528;52.124;5.196;2023-01-08T07:28:08;100011.00;;;13.80
20736;BMP180;10528;52.124;5.196;2023-01-08T07:30:36;100011.00;;;13.80
20736;BMP180;10528;52.124;5.196;2023-01-08T07:33:03;99998.00;;;13.80
20736;BMP180;10528;52.124;5.196;2023-01-08T07:35:30;99990.00;;;13.80
20736;BMP180;10528;52.124;5.196;2023-01-08T07:37:56;99988.00;;;13.70
20736;BMP180;10528;52.124;5.196;2023-01-08T07:40:23;99987.00;;;13.70
20736;BMP180;10528;52.124;5.196;2023-01-08T07:43:02;99987.00;;;13.70
20736;BMP180;10528;52.124;5.196;2023-01-08T07:45:30;99985.00;;;13.70
20736;BMP180;10528;52.124;5.196;2023-01-08T07:47:59;99983.00;;;13.70
20736;BMP180;10528;52.124;5.196;2023-01-08T07:50:26;99980.00;;;13.70
20736;BMP180;10528;52.124;5.196;2023-01-08T07:53:03;99980.00;;;13.60
20736;BMP180;10528;52.124;5.196;2023-01-08T07:55:30;99972.00;;;13.60
20736;BMP180;10528;52.124;5.196;2023-01-08T07:57:57;99983.00;;;13.60
20736;BMP180;10528;52.124;5.196;2023-01-08T08:00:25;99971.00;;;13.60
20736;BMP180;10528;52.124;5.196;2023-01-08T08:02:52;99975.00;;;13.60
20736;BMP180;10528;52.124;5.196;2023-01-08T08:05:19;99985.00;;;13.60
20736;BMP180;10528;52.124;5.196;2023-01-08T08:07:46;99975.00;;;13.60
20736;BMP180;10528;52.124;5.196;2023-01-08T08:10:13;99981.00;;;13.50
20736;BMP180;10528;52.124;5.196;2023-01-08T08:12:39;99980.00;;;13.50
20736;BMP180;10528;52.124;5.196;2023-01-08T08:15:07;99989.00;;;13.50
20736;BMP180;10528;52.124;5.196;2023-01-08T08:17:34;99980.00;;;13.50
20736;BMP180;10528;52.124;5.196;2023-01-08T08:20:02;99978.00;;;13.50
20736;BMP180;10528;52.124;5.196;2023-01-08T08:22:28;99980.00;;;13.50
20736;BMP180;10528;52.124;5.196;2023-01-08T08:24:56;99981.00;;;13.50
20736;BMP180;10528;52.124;5.196;2023-01-08T08:27:22;99975.00;;;13.50
20736;BMP180;10528;52.124;5.196;2023-01-08T08:29:50;99972.00;;;13.50
20736;BMP180;10528;52.124;5.196;2023-01-08T08:32:17;99974.00;;;13.50
20736;BMP180;10528;52.124;5.196;2023-01-08T08:34:44;99967.00;;;13.50
20736;BMP180;10528;52.124;5.196;2023-01-08T08:37:10;99970.00;;;13.40
20736;BMP180;10528;52.124;5.196;2023-01-08T08:39:37;99963.00;;;13.40
20736;BMP180;10528;52.124;5.196;2023-01-08T08:42:04;99971.00;;;13.40
20736;BMP180;10528;52.124;5.196;2023-01-08T08:44:31;99958.00;;;13.40
20736;BMP180;10528;52.124;5.196;2023-01-08T08:46:58;99955.00;;;13.40
20736;BMP180;10528;52.124;5.196;2023-01-08T08:49:25;99950.00;;;13.40
20736;BMP180;10528;52.124;5.196;2023-01-08T08:51:52;99944.00;;;13.40
20736;BMP180;10528;52.124;5.196;2023-01-08T08:54:19;99942.00;;;13.40
20736;BMP180;10528;52.124;5.196;2023-01-08T08:56:47;99936.00;;;13.40
20736;BMP180;10528;52.124;5.196;2023-01-08T08:59:14;99927.00;;;13.40
20736;BMP180;10528;52.124;5.196;2023-01-08T09:01:41;99928.00;;;13.40
20736;BMP180;10528;52.124;5.196;2023-01-08T09:04:08;99927.00;;;13.40
20736;BMP180;10528;52.124;5.196;2023-01-08T09:06:35;99936.00;;;13.40
20736;BMP180;10528;52.124;5.196;2023-01-08T09:09:02;99939.00;;;13.40
20736;BMP180;10528;52.124;5.196;2023-01-08T09:11:30;99930.00;;;13.40
20736;BMP180;10528;52.124;5.196;2023-01-08T09:13:57;99933.00;;;13.40
20736;BMP180;10528;52.124;5.196;2023-01-08T09:16:24;99924.00;;;13.40
20736;BMP180;10528;52.124;5.196;2023-01-08T09:18:51;99918.00;;;13.50
20736;BMP180;10528;52.124;5.196;2023-01-08T09:21:17;99927.00;;;13.50
20736;BMP180;10528;52.124;5.196;2023-01-08T09:23:47;99932.00;;;13.50
20736;BMP180;10528;52.124;5.196;2023-01-08T09:26:14;99921.00;;;13.50
20736;BMP180;10528;52.124;5.196;2023-01-08T09:28:41;99935.00;;;13.60
20736;BMP180;10528;52.124;5.196;2023-01-08T09:31:08;99936.00;;;13.60
20736;BMP180;10528;52.124;5.196;2023-01-08T09:33:35;99938.00;;;13.70
20736;BMP180;10528;52.124;5.196;2023-01-08T09:36:02;99941.00;;;13.70
20736;BMP180;10528;52.124;5.196;2023-01-08T09:38:29;99931.00;;;13.70
20736;BMP180;10528;52.124;5.196;2023-01-08T09:41:12;99938.00;;;13.80
20736;BMP180;10528;52.124;5.196;2023-01-08T09:43:46;99936.00;;;13.80
20736;BMP180;10528;52.124;5.196;2023-01-08T09:46:17;99931.00;;;13.90
20736;BMP180;10528;52.124;5.196;2023-01-08T09:48:45;99927.00;;;13.90
20736;BMP180;10528;52.124;5.196;2023-01-08T09:51:15;99923.00;;;14.00
20736;BMP180;10528;52.124;5.196;2023-01-08T09:53:44;99932.00;;;14.00
20736;BMP180;10528;52.124;5.196;2023-01-08T09:56:15;99931.00;;;14.10
20736;BMP180;10528;52.124;5.196;2023-01-08T09:58:53;99926.00;;;14.20
20736;BMP180;10528;52.124;5.196;2023-01-08T10:01:25;99938.00;;;14.20
20736;BMP180;10528;52.124;5.196;2023-01-08T10:04:18;99926.00;;;14.30
20736;BMP180;10528;52.124;5.196;2023-01-08T10:07:01;99919.00;;;14.30
20736;BMP180;10528;52.124;5.196;2023-01-08T10:09:32;99927.00;;;14.40
20736;BMP180;10528;52.124;5.196;2023-01-08T10:12:02;99920.00;;;14.50
20736;BMP180;10528;52.124;5.196;2023-01-08T10:14:34;99921.00;;;14.50
20736;BMP180;10528;52.124;5.196;2023-01-08T10:17:20;99918.00;;;14.50
20736;BMP180;10528;52.124;5.196;2023-01-08T10:19:49;99912.00;;;14.60
20736;BMP180;10528;52.124;5.196;2023-01-08T10:22:21;99902.00;;;14.60
20736;BMP180;10528;52.124;5.196;2023-01-08T10:24:50;99898.00;;;14.70
20736;BMP180;10528;52.124;5.196;2023-01-08T10:27:22;99894.00;;;14.70
20736;BMP180;10528;52.124;5.196;2023-01-08T10:29:51;99899.00;;;14.80
20736;BMP180;10528;52.124;5.196;2023-01-08T10:32:33;99898.00;;;14.90
20736;BMP180;10528;52.124;5.196;2023-01-08T10:35:05;99891.00;;;14.90
20736;BMP180;10528;52.124;5.196;2023-01-08T10:37:42;99887.00;;;15.00
20736;BMP180;10528;52.124;5.196;2023-01-08T10:40:35;99889.00;;;15.00
20736;BMP180;10528;52.124;5.196;2023-01-08T10:43:27;99881.00;;;15.00
20736;BMP180;10528;52.124;5.196;2023-01-08T10:46:06;99886.00;;;15.10
20736;BMP180;10528;52.124;5.196;2023-01-08T10:48:38;99893.00;;;15.00
20736;BMP180;10528;52.124;5.196;2023-01-08T10:51:19;99880.00;;;15.10
20736;BMP180;10528;52.124;5.196;2023-01-08T10:53:47;99872.00;;;15.20
20736;BMP180;10528;52.124;5.196;2023-01-08T10:58:46;99877.00;;;15.30
20736;BMP180;10528;52.124;5.196;2023-01-08T11:01:28;99872.00;;;15.30
20736;BMP180;10528;52.124;5.196;2023-01-08T11:03:59;99873.00;;;15.30
20736;BMP180;10528;52.124;5.196;2023-01-08T11:06:36;99879.00;;;15.30
20736;BMP180;10528;52.124;5.196;2023-01-08T11:09:22;99869.00;;;15.40
20736;BMP180;10528;52.124;5.196;2023-01-08T11:11:51;99871.00;;;15.40
20736;BMP180;10528;52.124;5.196;2023-01-08T11:14:31;99855.00;;;15.50
20736;BMP180;10528;52.124;5.196;2023-01-08T11:17:09;99857.00;;;15.50
20736;BMP180;10528;52.124;5.196;2023-01-08T11:19:36;99861.00;;;15.50
20736;BMP180;10528;52.124;5.196;2023-01-08T11:22:21;99856.00;;;15.50
20736;BMP180;10528;52.124;5.196;2023-01-08T11:24:51;99844.00;;;15.60
20736;BMP180;10528;52.124;5.196;2023-01-08T11:27:30;99835.00;;;15.60
20736;BMP180;10528;52.124;5.196;2023-01-08T11:30:20;99829.00;;;15.70
20736;BMP180;10528;52.124;5.196;2023-01-08T11:33:06;99831.00;;;15.70
20736;BMP180;10528;52.124;5.196;2023-01-08T11:35:49;99820.00;;;15.70
20736;BMP180;10528;52.124;5.196;2023-01-08T11:38:19;99823.00;;;15.80
20736;BMP180;10528;52.124;5.196;2023-01-08T11:44:32;99820.00;;;15.90
20736;BMP180;10528;52.124;5.196;2023-01-08T11:47:27;99819.00;;;15.90
20736;BMP180;10528;52.124;5.196;2023-01-08T11:50:21;99808.00;;;15.90
20736;BMP180;10528;52.124;5.196;2023-01-08T11:53:19;99810.00;;;15.90
20736;BMP180;10528;52.124;5.196;2023-01-08T11:55:55;99801.00;;;16.00
20736;BMP180;10528;52.124;5.196;2023-01-08T12:01:57;99797.00;;;16.00
20736;BMP180;10528;52.124;5.196;2023-01-08T12:07:58;99788.00;;;16.00
20736;BMP180;10528;52.124;5.196;2023-01-08T12:23:17;99773.00;;;16.10
20736;BMP180;10528;52.124;5.196;2023-01-08T12:32:16;99757.00;;;16.20
20736;BMP180;10528;52.124;5.196;2023-01-08T12:35:23;99765.00;;;16.20
20736;BMP180;10528;52.124;5.196;2023-01-08T12:38:09;99763.00;;;16.20
20736;BMP180;10528;52.124;5.196;2023-01-08T12:40:48;99762.00;;;16.20
20736;BMP180;10528;52.124;5.196;2023-01-08T12:46:15;99745.00;;;16.20
20736;BMP180;10528;52.124;5.196;2023-01-08T12:48:47;99747.00;;;16.20
20736;BMP180;10528;52.124;5.196;2023-01-08T12:54:33;99737.00;;;16.30
20736;BMP180;10528;52.124;5.196;2023-01-08T12:57:13;99727.00;;;16.20
20736;BMP180;10528;52.124;5.196;2023-01-08T13:00:25;99718.00;;;16.20
20736;BMP180;10528;52.124;5.196;2023-01-08T13:03:02;99730.00;;;16.20
20736;BMP180;10528;52.124;5.196;2023-01-08T13:05:36;99720.00;;;16.20
20736;BMP180;10528;52.124;5.196;2023-01-08T13:10:53;99708.00;;;16.20
20736;BMP180;10528;52.124;5.196;2023-01-08T13:13:39;99716.00;;;16.20
20736;BMP180;10528;52.124;5.196;2023-01-08T13:16:18;99710.00;;;16.20
20736;BMP180;10528;52.124;5.196;2023-01-08T13:18:59;99708.00;;;16.20
20736;BMP180;10528;52.124;5.196;2023-01-08T13:21:35;99710.00;;;16.20
20736;BMP180;10528;52.124;5.196;2023-01-08T13:24:29;99717.00;;;16.20
20736;BMP180;10528;52.124;5.196;2023-01-08T13:29:50;99700.00;;;16.10
20736;BMP180;10528;52.124;5.196;2023-01-08T13:32:45;99690.00;;;16.10
20736;BMP180;10528;52.124;5.196;2023-01-08T13:35:18;99690.00;;;16.10
20736;BMP180;10528;52.124;5.196;2023-01-08T13:38:13;99683.00;;;16.10
20736;BMP180;10528;52.124;5.196;2023-01-08T13:43:36;99679.00;;;16.10
20736;BMP180;10528;52.124;5.196;2023-01-08T13:46:19;99672.00;;;16.10
20736;BMP180;10528;52.124;5.196;2023-01-08T13:49:06;99670.00;;;16.00
20736;BMP180;10528;52.124;5.196;2023-01-08T13:51:45;99663.00;;;16.00
20736;BMP180;10528;52.124;5.196;2023-01-08T13:56:46;99673.00;;;16.00
20736;BMP180;10528;52.124;5.196;2023-01-08T13:59:36;99664.00;;;15.90
20736;BMP180;10528;52.124;5.196;2023-01-08T14:04:50;99662.00;;;15.90
20736;BMP180;10528;52.124;5.196;2023-01-08T14:07:17;99656.00;;;15.90
20736;BMP180;10528;52.124;5.196;2023-01-08T14:09:44;99654.00;;;15.90
20736;BMP180;10528;52.124;5.196;2023-01-08T14:12:19;99659.00;;;15.90
20736;BMP180;10528;52.124;5.196;2023-01-08T14:14:53;99653.00;;;15.80
20736;BMP180;10528;52.124;5.196;2023-01-08T14:17:30;99653.00;;;15.80
20736;BMP180;10528;52.124;5.196;2023-01-08T14:19:57;99654.00;;;15.90
20736;BMP180;10528;52.124;5.196;2023-01-08T14:22:32;99647.00;;;15.90
20736;BMP180;10528;52.124;5.196;2023-01-08T14:25:04;99642.00;;;15.90
20736;BMP180;10528;52.124;5.196;2023-01-08T14:27:33;99638.00;;;15.90
20736;BMP180;10528;52.124;5.196;2023-01-08T14:30:01;99632.00;;;15.90
20736;BMP180;10528;52.124;5.196;2023-01-08T14:32:29;99625.00;;;15.90
20736;BMP180;10528;52.124;5.196;2023-01-08T14:34:58;99630.00;;;15.90
20736;BMP180;10528;52.124;5.196;2023-01-08T14:37:27;99626.00;;;15.90
20736;BMP180;10528;52.124;5.196;2023-01-08T14:39:54;99631.00;;;15.80
20736;BMP180;10528;52.124;5.196;2023-01-08T14:42:35;99626.00;;;15.80
20736;BMP180;10528;52.124;5.196;2023-01-08T14:48:19;99605.00;;;15.80
20736;BMP180;10528;52.124;5.196;2023-01-08T14:51:04;99610.00;;;15.70
20736;BMP180;10528;52.124;5.196;2023-01-08T14:54:00;99590.00;;;15.70
20736;BMP180;10528;52.124;5.196;2023-01-08T14:56:32;99593.00;;;15.70
20736;BMP180;10528;52.124;5.196;2023-01-08T14:59:07;99597.00;;;15.70
20736;BMP180;10528;52.124;5.196;2023-01-08T15:01:36;99589.00;;;15.70
20736;BMP180;10528;52.124;5.196;2023-01-08T15:04:15;99587.00;;;15.70
20736;BMP180;10528;52.124;5.196;2023-01-08T15:06:50;99598.00;;;15.60
20736;BMP180;10528;52.124;5.196;2023-01-08T15:09:30;99592.00;;;15.60
20736;BMP180;10528;52.124;5.196;2023-01-08T15:12:01;99574.00;;;15.60
20736;BMP180;10528;52.124;5.196;2023-01-08T15:14:30;99578.00;;;15.60
20736;BMP180;10528;52.124;5.196;2023-01-08T15:17:17;99583.00;;;15.50
20736;BMP180;10528;52.124;5.196;2023-01-08T15:19:50;99580.00;;;15.50
20736;BMP180;10528;52.124;5.196;2023-01-08T15:22:23;99588.00;;;15.50
20736;BMP180;10528;52.124;5.196;2023-01-08T15:25:03;99591.00;;;15.40
20736;BMP180;10528;52.124;5.196;2023-01-08T15:27:31;99581.00;;;15.40
20736;BMP180;10528;52.124;5.196;2023-01-08T15:30:05;99579.00;;;15.40